Time;durP1;ratioP1;P1;durP2;ratioP2;P2;SDS_P1;SDS_P2;PMS_P1;PMS_P2;Temp;Humidity;BMP_temperature;BMP_pressure;BME280_temperature;BME280_humidity;BME280_pressure;Samples;Min_cycle;Max_cycle;Signal;HPM_P1;HPM_P2
2022/09/25 00:00:07;;;;;;;30.17;20.02;;;11.70;99.90;;;;;;5084187;28;20271;-90
2022/09/25 00:02:55;;;;;;;31.70;20.25;;;11.70;99.90;;;;;;5087634;28;20228;-88
2022/09/25 00:05:45;;;;;;;31.58;20.70;;;11.60;99.90;;;;;;5086018;28;20235;-89
2022/09/25 00:08:35;;;;;;;30.27;18.60;;;11.60;99.90;;;;;;5083538;28;20267;-89
2022/09/25 00:11:28;;;;;;;29.52;18.33;;;11.60;99.90;;;;;;5071232;28;20306;-87
2022/09/25 00:14:16;;;;;;;32.05;18.60;;;11.50;99.90;;;;;;5089409;28;20758;-90
2022/09/25 00:17:05;;;;;;;29.90;19.25;;;11.50;99.90;;;;;;5075907;28;20392;-92
2022/09/25 00:19:52;;;;;;;31.85;20.95;;;11.50;99.90;;;;;;5089527;28;20222;-90
2022/09/25 00:22:42;;;;;;;34.75;20.67;;;11.50;99.90;;;;;;5090488;28;20310;-90
2022/09/25 00:25:30;;;;;;;31.23;20.63;;;11.40;99.90;;;;;;5074656;28;20284;-88
2022/09/25 00:28:20;;;;;;;36.40;21.90;;;11.30;99.90;;;;;;5088595;28;20579;-88
2022/09/25 00:31:11;;;;;;;32.42;21.30;;;11.20;99.90;;;;;;5089628;28;20227;-88
2022/09/25 00:34:01;;;;;;;31.40;19.98;;;11.30;99.90;;;;;;5091029;28;20226;-89
2022/09/25 00:36:50;;;;;;;31.25;20.50;;;11.50;99.90;;;;;;5095147;28;20228;-89
2022/09/25 00:39:39;;;;;;;32.83;21.02;;;11.60;99.90;;;;;;5089382;28;20281;-88
2022/09/25 00:42:27;;;;;;;30.60;20.50;;;11.50;99.90;;;;;;5084359;28;20317;-88
2022/09/25 00:45:19;;;;;;;32.17;20.42;;;11.60;99.90;;;;;;5089317;28;20230;-87
2022/09/25 00:48:11;;;;;;;36.15;22.50;;;11.50;99.90;;;;;;5084115;28;20228;-89
2022/09/25 00:51:00;;;;;;;33.13;21.63;;;11.40;99.90;;;;;;5074353;28;20240;-89
2022/09/25 00:53:49;;;;;;;35.55;23.60;;;11.30;99.90;;;;;;5054817;28;20307;-89
2022/09/25 00:56:41;;;;;;;34.00;23.08;;;11.30;99.90;;;;;;5038406;28;21049;-88
2022/09/25 00:59:43;;;;;;;33.33;23.20;;;11.40;99.90;;;;;;5037931;28;20283;-90
2022/09/25 01:02:36;;;;;;;39.35;23.77;;;11.40;99.90;;;;;;5040908;28;20232;-87
2022/09/25 01:05:28;;;;;;;37.95;23.58;;;11.20;99.90;;;;;;5049980;28;20224;-87
2022/09/25 01:08:21;;;;;;;37.45;24.45;;;11.20;99.90;;;;;;5037437;28;20636;-87
2022/09/25 01:11:09;;;;;;;35.38;23.30;;;11.20;99.90;;;;;;5044811;28;20311;-89
2022/09/25 01:14:05;;;;;;;35.38;23.13;;;11.20;99.90;;;;;;5044032;28;20231;-88
2022/09/25 01:17:00;;;;;;;37.95;22.90;;;11.30;99.90;;;;;;5042313;28;20231;-88
2022/09/25 01:20:02;;;;;;;35.30;22.38;;;11.20;99.90;;;;;;5068249;28;20232;-88
2022/09/25 01:23:05;;;;;;;39.85;23.75;;;11.20;99.90;;;;;;5048938;28;20307;-88
2022/09/25 01:26:12;;;;;;;35.72;22.40;;;11.20;99.90;;;;;;5069167;28;20304;-88
2022/09/25 01:29:11;;;;;;;34.08;22.92;;;11.20;99.90;;;;;;5080900;28;20234;-89
2022/09/25 01:32:03;;;;;;;37.95;24.10;;;11.30;99.90;;;;;;5084827;28;20263;-88
2022/09/25 01:34:59;;;;;;;37.40;24.10;;;11.20;99.90;;;;;;5074516;28;20720;-87
2022/09/25 01:37:53;;;;;;;38.95;24.75;;;11.20;99.90;;;;;;5053876;28;20236;-87
2022/09/25 01:40:48;;;;;;;34.30;22.75;;;11.00;99.90;;;;;;5051713;28;20310;-88
2022/09/25 01:43:40;;;;;;;39.03;22.98;;;11.10;99.90;;;;;;5064923;28;20224;-89
2022/09/25 01:46:35;;;;;;;38.13;23.48;;;11.10;99.90;;;;;;5051439;28;20220;-88
2022/09/25 01:49:28;;;;;;;37.85;25.58;;;11.00;99.90;;;;;;5068674;28;20232;-86
2022/09/25 01:52:24;;;;;;;39.78;24.67;;;11.10;99.90;;;;;;5062700;28;20229;-86
2022/09/25 01:55:16;;;;;;;40.22;25.33;;;11.10;99.90;;;;;;5066726;28;20234;-87
2022/09/25 01:58:10;;;;;;;38.72;25.25;;;11.10;99.90;;;;;;5066526;28;20311;-87
2022/09/25 02:01:05;;;;;;;43.15;26.95;;;11.10;99.90;;;;;;5067148;28;20290;-86
2022/09/25 02:03:59;;;;;;;39.72;26.77;;;11.10;99.90;;;;;;5066150;28;20221;-86
2022/09/25 02:06:51;;;;;;;39.88;26.50;;;11.10;99.90;;;;;;5067602;28;20216;-86
2022/09/25 02:09:43;;;;;;;43.10;27.98;;;11.10;99.90;;;;;;5064739;28;20800;-87
2022/09/25 02:12:37;;;;;;;44.50;27.95;;;11.00;99.90;;;;;;5066057;28;20223;-87
2022/09/25 02:15:29;;;;;;;43.65;28.38;;;11.00;99.90;;;;;;5052086;28;20250;-89
2022/09/25 02:21:36;;;;;;;48.38;28.20;;;10.90;99.90;;;;;;5060917;28;20716;-86
2022/09/25 02:24:31;;;;;;;48.13;29.00;;;10.90;99.90;;;;;;5066213;28;20220;-88
2022/09/25 02:27:22;;;;;;;52.58;29.65;;;11.00;99.90;;;;;;5065691;28;20308;-86
2022/09/25 02:30:11;;;;;;;42.22;28.38;;;10.90;99.90;;;;;;5064944;28;20312;-87
2022/09/25 02:32:59;;;;;;;46.58;28.70;;;10.90;99.90;;;;;;5066012;28;20236;-87
2022/09/25 02:35:48;;;;;;;45.00;28.23;;;10.70;99.90;;;;;;5065527;28;20220;-87
2022/09/25 02:38:38;;;;;;;43.00;27.73;;;10.60;99.90;;;;;;5064097;28;20245;-87
2022/09/25 02:41:40;;;;;;;46.22;29.13;;;10.60;99.90;;;;;;5069672;28;20369;-86
2022/09/25 02:44:39;;;;;;;40.85;27.00;;;10.60;99.90;;;;;;5063491;28;20234;-86
2022/09/25 02:47:35;;;;;;;42.45;28.08;;;10.50;99.90;;;;;;5064615;28;20299;-85
2022/09/25 02:50:27;;;;;;;42.40;27.58;;;10.60;99.90;;;;;;5071880;28;20307;-88
2022/09/25 02:53:21;;;;;;;42.25;26.58;;;10.60;99.90;;;;;;5083209;28;20329;-87
2022/09/25 02:56:18;;;;;;;41.55;26.55;;;10.70;99.90;;;;;;5084489;28;20235;-87
2022/09/25 02:59:12;;;;;;;40.45;27.00;;;10.60;99.90;;;;;;5084538;28;20238;-87
2022/09/25 03:02:02;;;;;;;45.67;27.25;;;10.70;99.90;;;;;;5070802;28;20357;-88
2022/09/25 03:04:52;;;;;;;42.67;25.85;;;10.70;99.90;;;;;;5068844;28;20254;-87
2022/09/25 03:10:47;;;;;;;44.10;25.65;;;10.40;99.90;;;;;;5080897;28;20267;-88
2022/09/25 03:13:38;;;;;;;43.40;26.00;;;10.50;99.90;;;;;;5086287;28;20227;-89
2022/09/25 03:16:34;;;;;;;41.05;26.90;;;10.50;99.90;;;;;;5085784;28;20269;-87
2022/09/25 03:19:24;;;;;;;43.65;28.13;;;10.50;99.90;;;;;;5078712;28;20360;-86
2022/09/25 03:22:13;;;;;;;41.83;27.70;;;10.40;99.90;;;;;;5080527;28;21101;-86
2022/09/25 03:25:01;;;;;;;40.42;26.60;;;10.40;99.90;;;;;;5083773;28;20310;-87
2022/09/25 03:27:50;;;;;;;43.72;27.02;;;10.40;99.90;;;;;;5085609;28;20230;-87
2022/09/25 03:30:40;;;;;;;40.80;26.63;;;10.40;99.90;;;;;;5069526;28;20250;-87
2022/09/25 03:33:30;;;;;;;42.92;27.05;;;10.40;99.90;;;;;;5084369;28;20234;-87
2022/09/25 03:36:21;;;;;;;42.30;27.45;;;10.30;99.90;;;;;;5070780;28;20265;-86
2022/09/25 03:39:10;;;;;;;43.22;27.25;;;10.20;99.90;;;;;;5084888;28;20346;-87
2022/09/25 03:41:58;;;;;;;41.38;26.70;;;10.30;99.90;;;;;;5083751;28;20733;-89
2022/09/25 03:44:47;;;;;;;37.60;25.13;;;10.20;99.90;;;;;;5068959;28;21080;-87
2022/09/25 03:47:37;;;;;;;42.78;25.58;;;10.30;99.90;;;;;;5065787;28;20239;-86
2022/09/25 03:50:25;;;;;;;36.58;25.08;;;10.40;99.90;;;;;;5088371;28;20231;-87
2022/09/25 03:53:13;;;;;;;41.75;25.02;;;10.40;99.90;;;;;;5072331;28;20954;-87
2022/09/25 03:56:04;;;;;;;38.10;24.48;;;10.40;99.90;;;;;;5087691;28;20231;-86
2022/09/25 03:58:54;;;;;;;39.78;25.02;;;10.40;99.90;;;;;;5072876;28;20312;-82
2022/09/25 04:01:42;;;;;;;36.17;24.67;;;10.40;99.90;;;;;;5085445;28;20335;-86
2022/09/25 04:04:32;;;;;;;36.92;23.88;;;10.40;99.90;;;;;;5067880;28;20247;-86
2022/09/25 04:07:24;;;;;;;34.03;22.73;;;10.50;99.90;;;;;;5085918;28;20216;-87
2022/09/25 04:10:16;;;;;;;32.15;22.90;;;10.50;99.90;;;;;;5074293;28;20231;-86
2022/09/25 04:13:05;;;;;;;35.80;22.83;;;10.50;99.90;;;;;;5082036;28;20284;-88
2022/09/25 04:15:53;;;;;;;36.88;24.13;;;10.50;99.90;;;;;;5086092;28;20230;-86
2022/09/25 04:18:42;;;;;;;37.90;23.92;;;10.40;99.90;;;;;;5072791;28;20234;-86
2022/09/25 04:21:31;;;;;;;32.53;22.10;;;10.50;99.90;;;;;;5072112;28;20223;-87
2022/09/25 04:27:26;;;;;;;35.28;23.33;;;10.50;99.90;;;;;;5086229;28;20269;-87
2022/09/25 04:30:15;;;;;;;34.80;22.52;;;10.40;99.90;;;;;;5083934;28;20319;-86
2022/09/25 04:36:09;;;;;;;36.28;23.70;;;10.50;99.90;;;;;;5096343;28;20235;-86
2022/09/25 04:38:59;;;;;;;33.17;22.00;;;10.20;99.90;;;;;;5095471;28;20311;-87
2022/09/25 04:41:47;;;;;;;36.90;23.38;;;10.10;99.90;;;;;;5088180;28;20276;-86
2022/09/25 04:44:36;;;;;;;34.22;22.05;;;10.10;99.90;;;;;;5085446;28;20992;-90
2022/09/25 04:47:27;;;;;;;34.28;22.52;;;10.20;99.90;;;;;;5085927;28;20306;-86
2022/09/25 04:50:15;;;;;;;30.05;21.15;;;10.30;99.90;;;;;;5084957;28;20257;-87
2022/09/25 04:53:03;;;;;;;33.78;22.02;;;10.20;99.90;;;;;;5085068;28;20219;-87
2022/09/25 04:55:54;;;;;;;34.40;23.50;;;10.20;99.90;;;;;;5086928;28;20494;-79
2022/09/25 04:58:45;;;;;;;34.72;21.90;;;10.30;99.90;;;;;;5085012;28;20251;-87
2022/09/25 05:01:33;;;;;;;35.78;22.88;;;10.30;99.90;;;;;;5081876;28;20231;-86
2022/09/25 05:04:22;;;;;;;35.03;22.58;;;10.30;99.90;;;;;;5085773;28;20231;-87
2022/09/25 05:07:10;;;;;;;33.95;22.20;;;10.40;99.90;;;;;;5070117;28;20223;-86
2022/09/25 05:09:59;;;;;;;34.63;23.15;;;10.50;99.90;;;;;;5063701;28;20307;-88
2022/09/25 05:12:53;;;;;;;34.63;22.90;;;10.50;99.90;;;;;;5083821;28;20242;-88
2022/09/25 05:15:42;;;;;;;36.50;22.58;;;10.20;99.90;;;;;;5087599;28;20228;-87
2022/09/25 05:18:30;;;;;;;34.20;22.83;;;10.40;99.90;;;;;;5086159;28;20752;-86
2022/09/25 05:21:19;;;;;;;33.13;21.40;;;10.40;99.90;;;;;;5069882;28;20320;-86
2022/09/25 05:24:08;;;;;;;30.92;21.50;;;10.30;99.90;;;;;;5086114;28;20215;-87
2022/09/25 05:26:57;;;;;;;32.67;22.50;;;10.20;99.90;;;;;;5086479;28;20224;-87
2022/09/25 05:29:48;;;;;;;35.17;23.45;;;10.30;99.90;;;;;;5084214;28;20309;-86
2022/09/25 05:32:36;;;;;;;34.10;22.67;;;10.30;99.90;;;;;;5083727;28;20824;-87
2022/09/25 05:35:26;;;;;;;34.88;22.73;;;10.40;99.90;;;;;;5081730;28;20223;-85
2022/09/25 05:38:15;;;;;;;32.30;22.63;;;10.50;99.90;;;;;;5081227;28;20231;-85
2022/09/25 05:41:05;;;;;;;35.45;22.58;;;10.60;99.90;;;;;;5065093;28;20318;-84
2022/09/25 05:43:54;;;;;;;30.55;22.15;;;10.60;99.90;;;;;;5083343;28;20227;-86
2022/09/25 05:46:44;;;;;;;35.35;22.70;;;10.60;99.90;;;;;;5082952;28;20986;-86
2022/09/25 05:49:32;;;;;;;32.15;22.23;;;10.60;99.90;;;;;;5084900;28;20223;-86
2022/09/25 05:52:21;;;;;;;32.35;22.42;;;10.60;99.90;;;;;;5082538;28;20277;-86
2022/09/25 05:55:09;;;;;;;31.33;21.83;;;10.70;99.90;;;;;;5084237;28;20634;-85
2022/09/25 05:58:02;;;;;;;31.40;21.83;;;10.70;99.90;;;;;;5083704;28;20250;-84
2022/09/25 06:00:51;;;;;;;31.92;22.73;;;10.70;99.90;;;;;;5082949;28;20224;-86
2022/09/25 06:03:40;;;;;;;33.47;22.30;;;10.70;99.90;;;;;;5069086;28;20256;-85
2022/09/25 06:06:31;;;;;;;34.03;22.48;;;10.60;99.90;;;;;;5083807;28;20231;-87
2022/09/25 06:09:19;;;;;;;33.70;22.75;;;10.70;99.90;;;;;;5082886;28;20310;-87
2022/09/25 06:12:08;;;;;;;34.55;22.13;;;10.70;99.90;;;;;;5083489;28;20266;-88
2022/09/25 06:14:56;;;;;;;30.02;21.33;;;10.80;99.90;;;;;;5084604;28;20236;-86
2022/09/25 06:17:45;;;;;;;31.80;21.75;;;10.70;99.90;;;;;;5085651;28;20257;-87
2022/09/25 06:20:35;;;;;;;31.20;21.73;;;10.80;99.90;;;;;;5064857;28;20263;-87
2022/09/25 06:23:23;;;;;;;34.03;21.90;;;10.90;99.90;;;;;;5085426;28;21358;-86
2022/09/25 06:26:12;;;;;;;31.23;21.48;;;11.10;99.90;;;;;;5084441;28;20230;-87
2022/09/25 06:29:02;;;;;;;32.38;21.50;;;11.20;99.90;;;;;;5083250;28;20219;-88
2022/09/25 06:31:52;;;;;;;29.33;21.60;;;11.20;99.90;;;;;;5085106;28;20253;-87
2022/09/25 06:34:40;;;;;;;35.67;22.85;;;11.20;99.90;;;;;;5083871;28;20733;-88
2022/09/25 06:37:30;;;;;;;29.58;20.90;;;11.30;99.90;;;;;;5055089;28;20230;-87
2022/09/25 06:40:19;;;;;;;29.60;21.00;;;11.40;99.90;;;;;;5079389;28;20227;-86
2022/09/25 06:43:10;;;;;;;30.10;20.98;;;11.50;99.90;;;;;;5082056;28;20227;-89
2022/09/25 06:46:02;;;;;;;31.73;20.90;;;11.60;99.90;;;;;;5082168;28;20215;-86
2022/09/25 06:48:53;;;;;;;27.52;21.25;;;11.70;99.90;;;;;;5084322;28;20636;-87
2022/09/25 06:51:41;;;;;;;27.75;21.20;;;11.70;99.90;;;;;;5069988;28;20235;-86
2022/09/25 06:54:31;;;;;;;28.20;19.92;;;11.80;99.90;;;;;;5083021;28;20226;-87
2022/09/25 06:57:20;;;;;;;27.92;19.77;;;11.80;99.90;;;;;;5084326;28;20269;-86
2022/09/25 07:00:10;;;;;;;27.75;18.88;;;11.80;99.90;;;;;;5070454;28;20238;-86
2022/09/25 07:06:07;;;;;;;28.58;19.05;;;11.80;99.90;;;;;;5081554;28;20310;-87
2022/09/25 07:08:56;;;;;;;27.17;19.75;;;12.00;99.90;;;;;;5083298;28;20349;-86
2022/09/25 07:11:47;;;;;;;27.70;19.80;;;12.00;99.90;;;;;;5067978;28;20215;-86
2022/09/25 07:14:36;;;;;;;27.30;20.45;;;12.10;99.90;;;;;;5080294;28;20263;-86
2022/09/25 07:17:24;;;;;;;26.98;19.95;;;12.20;99.90;;;;;;5082659;28;20373;-86
2022/09/25 07:20:14;;;;;;;25.48;19.63;;;12.20;99.90;;;;;;5083035;28;20978;-86
2022/09/25 07:23:03;;;;;;;29.83;19.15;;;12.30;99.90;;;;;;5081503;28;20223;-86
2022/09/25 07:25:51;;;;;;;25.90;18.90;;;12.30;99.90;;;;;;5083897;28;20314;-86
2022/09/25 07:28:43;;;;;;;25.85;19.02;;;12.30;99.90;;;;;;5080486;28;20220;-87
2022/09/25 07:31:34;;;;;;;24.27;18.85;;;12.40;99.90;;;;;;5083773;28;20823;-86
2022/09/25 07:34:23;;;;;;;25.85;18.77;;;12.50;99.90;;;;;;5086177;28;20227;-86
2022/09/25 07:37:12;;;;;;;22.95;18.13;;;12.60;99.90;;;;;;5091199;28;20557;-89
2022/09/25 07:40:00;;;;;;;25.33;17.60;;;12.60;99.90;;;;;;5091907;28;20219;-90
2022/09/25 07:42:49;;;;;;;24.92;18.48;;;12.90;99.90;;;;;;5088340;28;20711;-86
2022/09/25 07:45:38;;;;;;;26.40;18.25;;;13.10;99.90;;;;;;5084059;28;20250;-86
2022/09/25 07:48:29;;;;;;;24.83;18.60;;;13.40;99.90;;;;;;5084926;28;20245;-86
2022/09/25 07:51:18;;;;;;;24.38;18.27;;;13.80;99.90;;;;;;5075436;28;20272;-87
2022/09/25 07:54:07;;;;;;;21.65;17.65;;;14.30;99.90;;;;;;5062070;28;20228;-86
2022/09/25 07:56:55;;;;;;;24.30;17.55;;;14.60;99.90;;;;;;5063082;28;20224;-88
2022/09/25 07:59:44;;;;;;;25.15;16.88;;;15.10;99.90;;;;;;5063236;28;20738;-87
2022/09/25 08:02:34;;;;;;;21.90;17.45;;;15.20;99.90;;;;;;5060904;28;20281;-87
2022/09/25 08:05:23;;;;;;;21.85;16.52;;;14.90;99.90;;;;;;5062747;28;20231;-86
2022/09/25 08:08:11;;;;;;;22.13;17.55;;;14.90;99.90;;;;;;5062006;28;20232;-88
2022/09/25 08:11:01;;;;;;;24.35;17.77;;;14.70;99.90;;;;;;5059361;28;20233;-87
2022/09/25 08:13:50;;;;;;;23.02;17.52;;;14.80;99.90;;;;;;5063922;28;20235;-87
2022/09/25 08:16:38;;;;;;;26.15;17.65;;;14.90;99.90;;;;;;5061221;28;20308;-86
2022/09/25 08:19:28;;;;;;;25.67;18.33;;;15.00;99.90;;;;;;5062528;28;20229;-87
2022/09/25 08:22:17;;;;;;;22.73;18.42;;;14.90;99.90;;;;;;5060691;28;20220;-86
2022/09/25 08:25:06;;;;;;;24.67;18.33;;;14.80;99.90;;;;;;5061989;28;20531;-90
2022/09/25 08:27:54;;;;;;;24.80;18.55;;;14.90;99.90;;;;;;5071059;28;20362;-86
2022/09/25 08:30:43;;;;;;;23.42;18.80;;;15.00;99.90;;;;;;5056841;28;20216;-87
2022/09/25 08:33:33;;;;;;;21.83;17.95;;;14.80;99.90;;;;;;5060717;28;20220;-86
2022/09/25 08:36:23;;;;;;;20.83;18.10;;;14.80;99.90;;;;;;5064788;28;20228;-88
2022/09/25 08:39:11;;;;;;;24.20;18.10;;;14.90;99.90;;;;;;5063404;28;21013;-86
2022/09/25 08:42:00;;;;;;;23.08;18.77;;;14.90;99.90;;;;;;5065527;28;20227;-85
2022/09/25 08:49:00;;;;;;;21.95;17.30;;;15.10;99.90;;;;;;5066503;28;20250;-86
2022/09/25 08:51:23;;;;;;;22.15;16.92;;;15.30;99.90;;;;;;5077557;28;20232;-86
2022/09/25 08:54:18;;;;;;;22.73;16.73;;;15.60;99.90;;;;;;5067626;28;20220;-86
2022/09/25 08:57:16;;;;;;;19.70;16.67;;;15.80;99.90;;;;;;5066078;28;20640;-86
2022/09/25 09:00:08;;;;;;;19.80;16.67;;;15.90;99.90;;;;;;5063943;28;20223;-86
2022/09/25 09:02:58;;;;;;;21.83;16.73;;;16.20;99.90;;;;;;5066272;28;20220;-86
2022/09/25 09:05:51;;;;;;;20.88;16.45;;;16.00;99.90;;;;;;5073112;28;20248;-86
2022/09/25 09:08:45;;;;;;;22.13;16.83;;;15.90;99.90;;;;;;5065976;28;20370;-88
2022/09/25 09:11:39;;;;;;;27.25;18.23;;;15.70;99.90;;;;;;5066251;28;20267;-87
2022/09/25 09:14:31;;;;;;;21.80;16.58;;;15.50;99.90;;;;;;5065162;28;20251;-86
2022/09/25 09:17:22;;;;;;;21.45;16.40;;;15.40;99.90;;;;;;5065085;28;20248;-86
2022/09/25 09:20:17;;;;;;;20.33;16.38;;;15.30;99.90;;;;;;5065694;28;20223;-86
2022/09/25 09:23:07;;;;;;;18.13;14.95;;;15.20;99.90;;;;;;5065806;28;20224;-86
2022/09/25 09:26:06;;;;;;;17.98;14.40;;;15.20;99.90;;;;;;5065163;28;20230;-86
2022/09/25 09:29:10;;;;;;;18.38;14.63;;;15.40;99.90;;;;;;5063580;28;20722;-87
2022/09/25 09:32:10;;;;;;;20.52;14.07;;;15.40;99.90;;;;;;5066678;28;20389;-87
2022/09/25 09:35:11;;;;;;;16.83;13.65;;;15.40;99.90;;;;;;5067301;28;20308;-88
2022/09/25 09:38:11;;;;;;;18.67;13.98;;;15.50;99.90;;;;;;5066434;28;20362;-86
2022/09/25 09:41:26;;;;;;;17.00;13.25;;;15.70;99.90;;;;;;5066764;28;20270;-87
2022/09/25 09:44:28;;;;;;;16.25;13.68;;;15.70;99.90;;;;;;5067036;28;20303;-87
2022/09/25 09:47:39;;;;;;;16.83;13.05;;;15.80;99.90;;;;;;5064376;28;20299;-86
2022/09/25 09:50:36;;;;;;;17.10;13.38;;;15.80;99.90;;;;;;5074490;28;20265;-86
2022/09/25 09:53:35;;;;;;;16.10;12.10;;;15.70;99.90;;;;;;5072696;28;20235;-87
2022/09/25 09:56:28;;;;;;;16.98;13.05;;;15.60;99.90;;;;;;5084677;28;20287;-86
2022/09/25 09:59:21;;;;;;;19.63;13.35;;;15.40;99.90;;;;;;5084221;28;20309;-87
2022/09/25 10:02:19;;;;;;;16.95;12.35;;;15.50;99.90;;;;;;5086072;28;20581;-87
2022/09/25 10:05:15;;;;;;;15.77;12.60;;;15.50;99.90;;;;;;5090081;28;20219;-86
2022/09/25 10:08:04;;;;;;;15.13;12.00;;;15.50;99.90;;;;;;5091426;28;20289;-86
2022/09/25 10:10:54;;;;;;;14.00;11.07;;;15.50;99.90;;;;;;5093981;28;20783;-79
2022/09/25 10:13:44;;;;;;;15.30;11.20;;;15.60;99.90;;;;;;5093000;28;20223;-86
2022/09/25 10:16:33;;;;;;;16.02;11.30;;;15.50;99.90;;;;;;5095720;28;20283;-86
2022/09/25 10:19:26;;;;;;;14.18;10.48;;;15.50;99.90;;;;;;5095032;28;20230;-89
2022/09/25 10:22:17;;;;;;;12.70;9.95;;;15.60;99.90;;;;;;5091718;28;20231;-87
2022/09/25 10:25:06;;;;;;;11.75;10.10;;;15.70;99.90;;;;;;5075231;28;20304;-91
2022/09/25 10:27:54;;;;;;;13.32;9.98;;;15.80;99.90;;;;;;5086434;28;20361;-87
2022/09/25 10:30:46;;;;;;;14.43;10.63;;;15.70;99.90;;;;;;5089326;28;20298;-87
2022/09/25 10:33:35;;;;;;;12.02;9.27;;;15.70;99.90;;;;;;5090154;28;20227;-89
2022/09/25 10:36:48;;;;;;;13.88;9.05;;;15.80;99.90;;;;;;5098922;28;20255;-87
2022/09/25 10:39:38;;;;;;;11.38;9.25;;;15.90;99.90;;;;;;5099101;28;20223;-87
2022/09/25 10:42:39;;;;;;;10.93;8.35;;;16.00;99.90;;;;;;5097049;28;20241;-89
2022/09/25 10:45:31;;;;;;;12.38;8.60;;;16.00;99.90;;;;;;5086470;28;20234;-87
2022/09/25 10:51:33;;;;;;;9.80;8.00;;;16.10;99.90;;;;;;5083968;28;20242;-90
2022/09/25 10:54:21;;;;;;;12.25;8.55;;;16.20;99.90;;;;;;5086651;28;20230;-87
2022/09/25 10:57:17;;;;;;;11.55;8.57;;;16.20;99.90;;;;;;5084236;28;20239;-88
2022/09/25 11:00:20;;;;;;;14.27;9.90;;;16.20;99.90;;;;;;5086935;28;20230;-88
2022/09/25 11:03:19;;;;;;;9.73;7.90;;;16.20;99.90;;;;;;5085637;28;20379;-88
2022/09/25 11:06:19;;;;;;;10.88;8.25;;;16.20;99.90;;;;;;5085662;28;20245;-89
2022/09/25 11:09:13;;;;;;;10.38;8.65;;;16.30;99.90;;;;;;5072292;28;20246;-88
2022/09/25 11:12:12;;;;;;;10.98;8.45;;;16.40;99.90;;;;;;5085459;28;20211;-88
2022/09/25 11:15:04;;;;;;;8.00;6.75;;;16.40;99.90;;;;;;5089427;28;21065;-89
2022/09/25 11:17:54;;;;;;;7.70;5.57;;;16.40;99.90;;;;;;5086822;28;20316;-87
2022/09/25 11:20:43;;;;;;;7.43;5.85;;;16.50;99.90;;;;;;5089360;28;20312;-88
2022/09/25 11:23:40;;;;;;;11.38;7.60;;;16.50;99.90;;;;;;5083009;28;20227;-87
2022/09/25 11:26:33;;;;;;;6.97;6.13;;;16.50;99.90;;;;;;5087072;28;20226;-87
2022/09/25 11:29:32;;;;;;;8.48;6.95;;;16.60;99.90;;;;;;5070258;28;20432;-89
2022/09/25 11:32:29;;;;;;;10.95;7.18;;;16.50;99.90;;;;;;5087775;28;20234;-89
2022/09/25 11:35:31;;;;;;;8.73;7.28;;;16.50;99.90;;;;;;5088099;28;20230;-86
2022/09/25 11:41:44;;;;;;;7.35;6.07;;;16.60;99.90;;;;;;5085195;28;20298;-87
2022/09/25 11:44:38;;;;;;;9.80;6.75;;;16.60;99.90;;;;;;5085947;28;20223;-90
2022/09/25 11:47:32;;;;;;;7.22;5.90;;;16.60;99.90;;;;;;5086405;28;20302;-89
2022/09/25 11:50:26;;;;;;;8.63;6.95;;;16.60;99.90;;;;;;5082330;28;20365;-87
2022/09/25 11:53:26;;;;;;;11.52;7.68;;;16.60;99.90;;;;;;5061153;28;20223;-88
2022/09/25 11:56:27;;;;;;;9.93;6.93;;;16.60;99.90;;;;;;5072325;28;20248;-87
2022/09/25 11:59:37;;;;;;;8.05;6.70;;;16.70;99.90;;;;;;5069337;28;20231;-87
2022/09/25 12:02:47;;;;;;;8.45;7.00;;;16.60;99.90;;;;;;5069419;28;20227;-87
2022/09/25 12:05:54;;;;;;;10.20;6.10;;;16.70;99.90;;;;;;5068810;28;20224;-89
2022/09/25 12:09:01;;;;;;;9.60;6.18;;;16.80;99.90;;;;;;5071578;28;20703;-88
2022/09/25 12:11:56;;;;;;;7.40;6.20;;;16.80;99.90;;;;;;5061166;28;21183;-88
2022/09/25 12:14:53;;;;;;;6.50;5.85;;;16.80;99.90;;;;;;5078981;28;20223;-88
2022/09/25 12:17:50;;;;;;;8.85;6.32;;;16.80;99.90;;;;;;5076453;28;20302;-87
2022/09/25 12:20:47;;;;;;;8.70;6.35;;;16.90;99.90;;;;;;5074258;28;20362;-88
2022/09/25 12:23:43;;;;;;;7.07;5.63;;;16.90;99.90;;;;;;5071728;28;20250;-89
2022/09/25 12:26:40;;;;;;;7.10;5.35;;;16.90;99.90;;;;;;5078122;28;20240;-88
2022/09/25 12:29:41;;;;;;;5.45;4.78;;;16.80;99.90;;;;;;5061813;28;20989;-88
2022/09/25 12:32:52;;;;;;;7.05;4.88;;;16.90;99.90;;;;;;5075583;28;20236;-87
2022/09/25 12:35:49;;;;;;;8.10;5.45;;;17.00;99.90;;;;;;5075677;28;20647;-87
2022/09/25 12:38:44;;;;;;;6.82;5.22;;;17.10;99.90;;;;;;5073605;28;20299;-89
2022/09/25 12:41:40;;;;;;;7.30;5.80;;;17.10;99.90;;;;;;5075309;28;20844;-88
2022/09/25 12:44:39;;;;;;;6.05;5.05;;;17.10;99.90;;;;;;5073280;28;20251;-88
2022/09/25 12:47:37;;;;;;;8.65;6.20;;;17.10;99.90;;;;;;5064015;28;20224;-88
2022/09/25 12:50:28;;;;;;;7.68;5.93;;;17.10;99.90;;;;;;5074677;28;20231;-88
2022/09/25 12:53:25;;;;;;;6.82;5.28;;;17.10;99.90;;;;;;5088506;28;20226;-88
2022/09/25 12:56:16;;;;;;;6.93;5.63;;;17.00;99.90;;;;;;5086884;28;20663;-88
2022/09/25 12:59:13;;;;;;;6.53;5.78;;;16.90;99.90;;;;;;5088898;28;20248;-88
2022/09/25 13:02:06;;;;;;;9.20;5.50;;;17.00;99.90;;;;;;5085935;28;20255;-88
2022/09/25 13:05:03;;;;;;;7.50;5.68;;;17.00;99.90;;;;;;5089782;28;20227;-87
2022/09/25 13:07:57;;;;;;;8.40;6.20;;;17.00;99.90;;;;;;5088280;28;20647;-89
2022/09/25 13:10:52;;;;;;;6.18;5.47;;;16.90;99.90;;;;;;5073410;28;20235;-89
2022/09/25 13:13:44;;;;;;;6.75;6.05;;;16.90;99.90;;;;;;5088524;28;20341;-89
2022/09/25 13:16:34;;;;;;;8.63;6.30;;;16.90;99.90;;;;;;5074699;28;20269;-89
2022/09/25 13:19:25;;;;;;;7.93;6.20;;;17.00;99.90;;;;;;5085772;28;20227;-89
2022/09/25 13:22:20;;;;;;;8.52;6.78;;;17.10;99.90;;;;;;5082057;28;20328;-88
2022/09/25 13:25:15;;;;;;;8.82;6.50;;;17.40;99.90;;;;;;5088037;28;20231;-89
2022/09/25 13:28:07;;;;;;;8.50;7.47;;;17.40;99.90;;;;;;5089506;28;20559;-90
2022/09/25 13:31:06;;;;;;;9.02;7.07;;;17.40;99.90;;;;;;5083490;28;20765;-89
2022/09/25 13:34:04;;;;;;;10.27;6.85;;;17.40;99.90;;;;;;5089923;28;20223;-89
2022/09/25 13:36:55;;;;;;;12.55;8.63;;;17.60;99.90;;;;;;5085473;28;20220;-91
2022/09/25 13:43:23;;;;;;;8.55;6.85;;;17.60;99.90;;;;;;5106006;28;20288;-90
2022/09/25 13:46:24;;;;;;;8.93;7.22;;;17.60;99.90;;;;;;5086358;28;20219;-90
2022/09/25 13:49:34;;;;;;;8.35;7.55;;;17.60;99.90;;;;;;5079731;28;20219;-89
2022/09/25 13:52:29;;;;;;;10.48;6.88;;;17.70;99.90;;;;;;5067024;28;20595;-90
2022/09/25 13:55:19;;;;;;;8.68;7.35;;;17.60;99.90;;;;;;5085592;28;20234;-88
2022/09/25 13:58:17;;;;;;;9.45;6.85;;;17.60;99.90;;;;;;5087636;28;20318;-90
2022/09/25 14:01:20;;;;;;;8.52;7.05;;;17.60;99.90;;;;;;5089199;28;20224;-89
2022/09/25 14:04:15;;;;;;;8.00;7.10;;;17.60;99.90;;;;;;5091360;28;20227;-90
2022/09/25 14:07:22;;;;;;;7.72;6.85;;;17.70;99.90;;;;;;5089546;28;20215;-90
2022/09/25 14:10:12;;;;;;;9.73;6.82;;;17.70;99.90;;;;;;5087590;28;20269;-90
2022/09/25 14:13:01;;;;;;;8.55;6.93;;;17.60;99.90;;;;;;5088719;28;20302;-90
2022/09/25 14:15:58;;;;;;;7.60;6.78;;;17.60;99.90;;;;;;5086087;28;20277;-89
2022/09/25 14:18:49;;;;;;;8.73;6.95;;;17.50;99.90;;;;;;5072679;28;20232;-89
2022/09/25 14:21:44;;;;;;;10.90;7.20;;;17.50;99.90;;;;;;5084368;28;20242;-89
2022/09/25 14:24:35;;;;;;;7.55;6.72;;;17.50;99.90;;;;;;5085223;28;20836;-89
2022/09/25 14:27:26;;;;;;;7.88;6.60;;;17.50;99.90;;;;;;5088213;28;20673;-89
2022/09/25 14:30:15;;;;;;;7.80;6.88;;;17.40;99.90;;;;;;5074684;28;20265;-90
2022/09/25 14:33:31;;;;;;;8.52;7.18;;;17.40;99.90;;;;;;5074111;28;20231;-89
2022/09/25 14:36:33;;;;;;;11.85;7.00;;;17.40;99.90;;;;;;5075604;28;20985;-90
2022/09/25 14:39:41;;;;;;;8.35;6.68;;;17.40;99.90;;;;;;5087199;28;20406;-90
2022/09/25 14:42:46;;;;;;;7.70;6.90;;;17.30;99.90;;;;;;5088875;28;20212;-90
2022/09/25 14:46:00;;;;;;;9.00;6.32;;;17.30;99.90;;;;;;5087720;28;20226;-90
2022/09/25 14:48:53;;;;;;;8.15;6.68;;;17.30;99.90;;;;;;5088846;28;20230;-90
2022/09/25 14:51:46;;;;;;;8.77;6.70;;;17.30;99.90;;;;;;5088841;28;20243;-90
2022/09/25 14:54:38;;;;;;;8.55;6.90;;;17.20;99.90;;;;;;5086425;28;20314;-89
2022/09/25 14:57:30;;;;;;;9.60;8.02;;;17.20;99.90;;;;;;5088523;28;20585;-89
2022/09/25 15:00:23;;;;;;;9.10;7.72;;;17.20;99.90;;;;;;5088754;28;20334;-90
2022/09/25 15:03:15;;;;;;;12.00;9.70;;;17.20;99.90;;;;;;5088289;28;20243;-90
2022/09/25 15:06:03;;;;;;;11.73;9.23;;;17.20;99.90;;;;;;5087267;28;20262;-90
2022/09/25 15:08:53;;;;;;;9.93;7.22;;;17.20;99.90;;;;;;5087987;28;20231;-90
2022/09/25 15:11:43;;;;;;;8.45;6.95;;;17.20;99.90;;;;;;5087168;28;20251;-90